Jackson Springs, North Carolina
Current Conditions -  °F | °C
As of 4:35 PM on Wednesday 26 Nov 2014 (Local Time) from KSOP Reporting Station
Broken Clouds Broken Clouds  
Wind Chill:   Ceiling: 4600
Heat Index:   Visibility: 10mi
Dew Point: -21°   Wind: 0mph
Humidity: 11%   Direction: NA
Pressure: 30.01"   Gusts: NA
Location:  35.21°N, 79.63°W
Report Text: KSOP 262135Z AUTO 00000KT 10SM SCT016 BKN046 08/M21 A3001 RMK AO1
Loading
Personal Weather Stations






























Interactive Weather Map New forecast layout! Learn more

10-Day Weather Forecast

Advertisements
Track Severe Weather on mobile